Time;durP1;ratioP1;P1;durP2;ratioP2;P2;SDS_P1;SDS_P2;PMS_P1;PMS_P2;Temp;Humidity;BMP_temperature;BMP_pressure;BME280_temperature;BME280_humidity;BME280_pressure;Samples;Min_cycle;Max_cycle;Signal;HPM_P1;HPM_P2
2022/08/15 00:01:32;;;;;;;4.00;3.47;;;27.70;48.90;;;-142.21;43.62;112049.66;5054505;28;20227;-75
2022/08/15 00:04:01;;;;;;;3.73;2.93;;;27.70;49.10;;;-142.21;43.76;112049.66;5053784;28;20244;-72
2022/08/15 00:06:33;;;;;;;5.63;3.27;;;27.60;49.10;;;-142.21;43.74;112049.66;5055094;28;20215;-73
2022/08/15 00:09:06;;;;;;;3.87;2.93;;;27.60;49.00;;;-142.21;43.75;112049.66;5053958;28;20204;-72
2022/08/15 00:11:38;;;;;;;5.67;3.03;;;27.70;49.10;;;-142.21;43.68;112049.66;5054543;28;20212;-74
2022/08/15 00:14:10;;;;;;;5.37;3.10;;;27.70;48.90;;;-142.21;44.24;112049.66;5054966;28;20288;-73
2022/08/15 00:16:41;;;;;;;4.13;3.30;;;27.80;49.10;;;-142.21;44.94;112049.66;5055153;28;20278;-73
2022/08/15 00:19:12;;;;;;;4.63;2.70;;;27.80;49.20;;;-142.21;44.62;112049.66;5054709;28;20200;-73
2022/08/15 00:21:44;;;;;;;4.13;3.10;;;27.80;49.00;;;-142.21;44.66;112049.66;5054279;28;20653;-73
2022/08/15 00:24:16;;;;;;;4.60;2.90;;;27.90;48.90;;;-142.21;45.01;112049.66;5054315;28;20209;-73
2022/08/15 00:26:44;;;;;;;5.53;2.90;;;27.90;48.90;;;-142.21;44.53;112049.66;5054349;28;20191;-73
2022/08/15 00:29:13;;;;;;;5.30;3.10;;;27.90;48.80;;;-142.21;45.06;112049.66;5054954;28;20252;-74
2022/08/15 00:31:40;;;;;;;5.40;3.33;;;27.90;49.00;;;-142.21;44.66;112049.66;5033455;28;20227;-73
2022/08/15 00:34:08;;;;;;;4.87;2.90;;;27.90;48.90;;;-142.21;44.81;112049.66;5055028;28;20289;-73
2022/08/15 00:36:36;;;;;;;3.23;2.87;;;27.90;48.80;;;-142.21;44.94;112049.66;5054799;28;20245;-73
2022/08/15 00:39:07;;;;;;;4.40;2.90;;;27.90;48.80;;;-142.21;44.69;112049.66;5054046;28;20294;-73
2022/08/15 00:41:41;;;;;;;3.63;2.80;;;27.90;48.90;;;-142.21;44.70;112049.66;5054115;28;20187;-73
2022/08/15 00:44:20;;;;;;;3.67;2.87;;;27.90;49.00;;;-142.21;44.69;112049.66;5054614;28;20213;-73
2022/08/15 00:46:53;;;;;;;3.33;2.80;;;27.90;48.90;;;-142.21;44.72;112049.66;5053964;28;20191;-73
2022/08/15 00:49:21;;;;;;;4.80;3.37;;;27.90;48.80;;;-142.21;45.01;112049.66;5054847;28;20192;-73
2022/08/15 00:51:55;;;;;;;6.30;2.60;;;27.80;48.80;;;-142.21;44.65;112049.66;5053658;28;20310;-72
2022/08/15 00:54:31;;;;;;;3.27;2.80;;;27.80;49.00;;;-142.21;44.42;112049.66;5054495;28;20223;-73
2022/08/15 00:57:05;;;;;;;3.50;3.03;;;27.70;48.90;;;-142.21;44.36;112049.66;5052867;28;20282;-71
2022/08/15 00:59:39;;;;;;;3.10;2.80;;;27.80;48.80;;;-142.21;44.50;112049.66;5054429;28;20224;-72
2022/08/15 01:02:11;;;;;;;5.93;3.20;;;27.70;48.80;;;-142.21;44.21;112049.66;5053783;28;20191;-73
2022/08/15 01:04:39;;;;;;;4.73;3.00;;;27.60;48.80;;;-142.21;44.84;112049.66;5053794;28;20710;-72
2022/08/15 01:07:09;;;;;;;4.93;3.17;;;27.50;49.00;;;-142.21;45.13;112049.66;5053907;28;20290;-73
2022/08/15 01:09:37;;;;;;;3.33;2.80;;;27.40;49.30;;;-142.21;45.28;112049.66;5052880;28;20571;-72
2022/08/15 01:12:13;;;;;;;4.03;2.93;;;27.40;49.50;;;-142.21;44.99;112049.66;5052373;28;20316;-73
2022/08/15 01:14:48;;;;;;;3.30;2.63;;;27.30;49.70;;;-142.21;45.57;112049.66;5054005;28;20657;-73
2022/08/15 01:17:17;;;;;;;4.67;3.13;;;27.20;49.90;;;-142.21;45.77;112049.66;5053804;28;20187;-73
2022/08/15 01:19:50;;;;;;;5.53;3.10;;;27.20;49.90;;;-142.21;46.53;112049.66;5053627;28;20289;-73
2022/08/15 01:22:56;;;;;;;3.43;3.00;;;27.20;50.50;;;-142.21;47.49;112049.66;5053625;28;20241;-72
2022/08/15 01:25:30;;;;;;;4.43;2.83;;;27.00;51.30;;;-142.21;47.90;112049.66;5041643;28;20566;-73
2022/08/15 01:28:05;;;;;;;4.87;3.33;;;26.90;51.40;;;-142.21;48.12;112049.66;5072362;28;20198;-72
2022/08/15 01:30:41;;;;;;;4.63;3.10;;;26.80;51.90;;;-142.21;47.97;112049.66;5034022;28;20199;-73
2022/08/15 01:33:09;;;;;;;4.33;3.00;;;26.80;51.60;;;-142.21;48.67;112049.66;5051659;28;20282;-74
2022/08/15 01:35:37;;;;;;;4.17;3.13;;;26.80;51.90;;;-142.21;48.95;112049.66;5053413;28;20236;-80
2022/08/15 01:38:11;;;;;;;4.07;2.60;;;26.70;51.80;;;-142.21;48.79;112049.66;5052150;28;20286;-79
2022/08/15 01:40:55;;;;;;;5.37;3.33;;;26.80;52.00;;;-142.21;49.23;112049.66;5053693;28;20221;-79
2022/08/15 01:43:31;;;;;;;4.27;2.97;;;26.80;52.20;;;-142.21;49.98;112049.66;5036313;28;20191;-78
2022/08/15 01:46:06;;;;;;;5.73;3.27;;;26.70;52.40;;;-142.21;50.94;112049.66;5052538;28;20288;-80
2022/08/15 01:48:42;;;;;;;5.57;3.10;;;26.60;53.10;;;-142.21;52.46;112049.66;5053698;28;20277;-80
2022/08/15 01:51:12;;;;;;;3.33;2.70;;;26.50;53.30;;;-142.21;54.33;112049.66;5053170;28;20218;-79
2022/08/15 01:53:46;;;;;;;3.20;2.90;;;26.60;53.60;;;-142.21;56.05;112049.66;5053101;28;20205;-78
2022/08/15 01:56:22;;;;;;;3.00;2.57;;;26.50;55.30;;;-142.21;58.53;112049.66;5053041;28;20200;-80
2022/08/15 01:58:50;;;;;;;4.37;3.53;;;26.40;54.90;;;-142.21;59.02;112049.66;5052520;28;20280;-77
2022/08/15 02:01:35;;;;;;;3.43;3.13;;;26.40;55.00;;;-142.21;59.95;112049.66;5052919;28;20700;-77
2022/08/15 02:04:03;;;;;;;3.13;2.83;;;26.30;55.70;;;-142.21;60.79;112049.66;5051806;28;20720;-78
2022/08/15 02:06:30;;;;;;;2.77;2.50;;;26.10;55.80;;;-142.21;60.82;112049.66;5052431;28;20289;-79
2022/08/15 02:09:00;;;;;;;2.97;2.50;;;26.10;56.30;;;-142.21;61.21;112049.66;5052392;28;20297;-79
2022/08/15 02:11:31;;;;;;;5.53;2.90;;;26.00;56.50;;;-142.21;61.58;112049.66;5052405;28;20706;-79
2022/08/15 02:14:00;;;;;;;3.20;2.70;;;25.90;57.00;;;-142.21;61.97;112049.66;5041503;28;20606;-79
2022/08/15 02:16:31;;;;;;;3.97;2.40;;;25.80;57.20;;;-142.21;62.23;112049.66;5053219;28;20624;-80
2022/08/15 02:18:59;;;;;;;5.60;2.80;;;25.70;57.20;;;-142.21;62.30;112049.66;5052686;28;20285;-79
2022/08/15 02:21:27;;;;;;;3.77;2.93;;;25.70;57.20;;;-142.21;62.48;112049.66;5052066;28;20193;-78
2022/08/15 02:23:54;;;;;;;4.33;2.37;;;25.60;57.80;;;-142.21;63.50;112049.66;5050715;28;20204;-79
2022/08/15 02:26:22;;;;;;;3.23;2.80;;;25.60;57.80;;;-142.21;63.92;112049.66;5052451;28;20289;-81
2022/08/15 02:28:51;;;;;;;3.33;3.03;;;25.50;58.10;;;-142.21;63.67;112049.66;5051826;28;20689;-80
2022/08/15 02:31:26;;;;;;;3.33;2.80;;;25.60;58.10;;;-142.21;64.06;112049.66;5052370;28;20316;-78
2022/08/15 02:33:58;;;;;;;3.10;2.80;;;25.60;58.00;;;-142.21;64.72;112049.66;5051887;28;20662;-79
2022/08/15 02:36:28;;;;;;;3.60;3.07;;;25.50;58.30;;;-142.21;65.35;112049.66;5052646;28;20201;-78
2022/08/15 02:38:58;;;;;;;2.70;2.50;;;25.50;58.80;;;-142.21;65.64;112049.66;5052107;28;20245;-80
2022/08/15 02:41:31;;;;;;;2.73;2.40;;;25.30;58.60;;;-142.21;65.57;112049.66;5052858;28;20198;-73
2022/08/15 02:44:02;;;;;;;3.77;2.57;;;25.40;58.60;;;-142.21;67.51;112049.66;5051673;28;20253;-74
2022/08/15 02:46:30;;;;;;;2.60;2.40;;;25.30;59.40;;;-142.21;69.07;112049.66;5052572;28;20194;-74
2022/08/15 02:48:58;;;;;;;3.10;2.40;;;25.30;59.60;;;-142.21;70.67;112049.66;5051727;28;20216;-74
2022/08/15 02:51:28;;;;;;;2.33;2.13;;;25.10;60.60;;;-142.21;71.93;112049.66;5052271;28;20244;-75
2022/08/15 02:53:59;;;;;;;2.93;2.50;;;25.00;61.20;;;-142.21;74.43;112049.66;5051107;28;20249;-76
2022/08/15 02:56:28;;;;;;;3.50;2.33;;;24.80;62.50;;;-142.21;75.35;112049.66;5052378;28;20198;-74
2022/08/15 02:58:55;;;;;;;3.77;2.60;;;24.70;62.40;;;-142.21;75.48;112049.66;5051553;28;20551;-74
2022/08/15 03:01:26;;;;;;;2.30;2.10;;;24.70;62.50;;;-142.21;74.90;112049.66;5052794;28;20662;-74
2022/08/15 03:03:57;;;;;;;2.43;2.13;;;24.70;61.70;;;-142.21;75.55;112049.66;5051410;28;20229;-74
2022/08/15 03:06:30;;;;;;;2.43;1.97;;;24.80;62.90;;;-142.21;75.21;112049.66;5052587;28;20216;-75
2022/08/15 03:09:00;;;;;;;2.63;2.30;;;24.80;62.30;;;-142.21;75.32;112049.66;5051618;28;20539;-74
2022/08/15 03:11:28;;;;;;;3.17;2.40;;;24.80;62.20;;;-142.21;75.67;112049.66;5051629;28;20213;-74
2022/08/15 03:13:56;;;;;;;2.43;2.23;;;24.80;62.50;;;-142.21;75.79;112049.66;5051325;28;20300;-74
2022/08/15 03:16:25;;;;;;;4.03;2.30;;;24.80;62.50;;;-142.21;76.15;112049.66;5051685;28;20650;-73
2022/08/15 03:18:54;;;;;;;2.50;2.30;;;24.80;62.30;;;-142.21;76.66;112049.66;5051116;28;20198;-74
2022/08/15 03:21:24;;;;;;;2.63;2.23;;;24.80;63.50;;;-142.21;77.75;112049.66;5051871;28;20209;-75
2022/08/15 03:23:51;;;;;;;3.03;2.60;;;24.70;63.20;;;-142.21;78.65;112049.66;5051157;28;20197;-74
2022/08/15 03:26:21;;;;;;;4.33;2.53;;;24.70;63.60;;;-142.21;79.17;112049.66;5051472;28;20200;-75
2022/08/15 03:28:48;;;;;;;2.87;2.50;;;24.60;63.80;;;-142.21;78.92;112049.66;5051693;28;20202;-74
2022/08/15 03:31:16;;;;;;;2.50;2.30;;;24.60;63.70;;;-142.21;79.22;112049.66;5051781;28;20223;-74
2022/08/15 03:33:45;;;;;;;2.07;1.87;;;24.60;63.80;;;-142.21;79.08;112049.66;5053306;28;20198;-74
2022/08/15 03:36:13;;;;;;;2.57;2.37;;;24.60;63.90;;;-142.21;79.81;112049.66;5055419;28;20205;-73
2022/08/15 03:38:40;;;;;;;2.60;2.40;;;24.60;64.20;;;-142.21;79.17;112049.66;5056162;28;20229;-74
2022/08/15 03:41:10;;;;;;;3.13;2.10;;;24.60;64.10;;;-142.21;80.07;112049.66;5055942;28;20233;-73
2022/08/15 03:43:38;;;;;;;2.40;2.20;;;24.60;64.20;;;-142.21;80.50;112049.66;5055038;28;20201;-75
2022/08/15 03:46:09;;;;;;;2.80;2.50;;;24.70;64.40;;;-142.21;80.58;112049.66;5056143;28;20204;-74
2022/08/15 03:48:42;;;;;;;3.00;2.40;;;24.60;64.40;;;-142.21;82.22;112049.66;5055908;28;20281;-74
2022/08/15 03:51:14;;;;;;;5.33;2.87;;;24.50;65.60;;;-142.21;81.69;112049.66;5055236;28;20278;-75
2022/08/15 03:53:45;;;;;;;2.63;2.43;;;24.50;65.00;;;-142.21;82.62;112049.66;5056235;28;20206;-74
2022/08/15 03:56:18;;;;;;;5.23;2.57;;;24.50;65.20;;;-142.21;83.32;112049.66;5054302;28;20193;-74
2022/08/15 03:58:47;;;;;;;2.60;2.37;;;24.50;66.10;;;-142.21;82.90;112049.66;5055926;28;20192;-75
2022/08/15 04:01:17;;;;;;;5.10;2.57;;;24.50;65.70;;;-142.21;83.80;112049.66;5055443;28;20221;-75
2022/08/15 04:03:46;;;;;;;2.87;2.30;;;24.30;66.60;;;-142.21;84.23;112049.66;5055603;28;20225;-75
2022/08/15 04:06:19;;;;;;;6.87;2.90;;;24.20;66.70;;;-142.21;84.24;112049.66;5055252;28;20276;-74
2022/08/15 04:08:47;;;;;;;3.07;2.30;;;24.20;67.00;;;-142.21;84.76;112049.66;5055621;28;20695;-74
2022/08/15 04:11:17;;;;;;;3.83;3.23;;;24.20;67.70;;;-142.21;84.61;112049.66;5055153;28;20304;-73
2022/08/15 04:13:46;;;;;;;3.03;2.20;;;24.10;67.20;;;-142.21;84.88;112049.66;5055552;28;20287;-74
2022/08/15 04:16:15;;;;;;;3.07;2.57;;;24.20;67.40;;;-142.21;85.07;112049.66;5054552;28;20295;-74
2022/08/15 04:18:43;;;;;;;2.90;2.60;;;24.20;67.30;;;-142.21;86.19;112049.66;5055648;28;20284;-74
2022/08/15 04:21:14;;;;;;;3.97;2.70;;;24.10;67.80;;;-142.21;86.09;112049.66;5054959;28;20201;-74
2022/08/15 04:23:44;;;;;;;4.07;2.60;;;24.00;68.00;;;-142.21;86.97;112049.66;5043351;28;20276;-73
2022/08/15 04:26:12;;;;;;;3.30;3.00;;;24.00;68.80;;;-142.21;86.52;112049.66;5055149;28;20229;-74
2022/08/15 04:28:39;;;;;;;3.83;2.53;;;24.10;68.50;;;-142.21;86.66;112049.66;5055331;28;20591;-73
2022/08/15 04:31:12;;;;;;;3.83;2.20;;;24.10;69.10;;;-142.21;87.34;112049.66;5054547;28;20209;-73
2022/08/15 04:33:39;;;;;;;4.23;2.20;;;24.10;68.70;;;-142.21;88.42;112049.66;5054965;28;20304;-74
2022/08/15 04:36:10;;;;;;;3.57;2.53;;;24.00;69.50;;;-142.21;89.29;112049.66;5054949;28;20290;-73
2022/08/15 04:38:42;;;;;;;5.40;2.50;;;23.90;70.50;;;-142.21;89.37;112049.66;5054782;28;20194;-73
2022/08/15 04:41:12;;;;;;;3.47;2.90;;;23.80;70.20;;;-142.21;89.65;112049.66;5054758;28;20220;-73
2022/08/15 04:43:44;;;;;;;3.43;2.60;;;23.80;70.60;;;-142.21;89.26;112049.66;5054949;28;20201;-74
2022/08/15 04:46:11;;;;;;;3.13;2.50;;;23.80;70.10;;;-142.21;89.36;112049.66;5054343;28;20204;-73
2022/08/15 04:48:39;;;;;;;4.80;3.40;;;23.90;70.70;;;-142.21;89.71;112049.66;5054782;28;20252;-74
2022/08/15 04:51:07;;;;;;;5.20;2.90;;;23.80;70.20;;;-142.21;89.78;112049.66;5053053;28;20296;-74
2022/08/15 04:53:39;;;;;;;3.37;3.07;;;23.80;70.50;;;-142.21;90.14;112049.66;5054610;28;20711;-75
2022/08/15 04:56:08;;;;;;;3.57;2.97;;;23.80;70.70;;;-142.21;90.15;112049.66;5055681;28;20193;-74
2022/08/15 04:58:36;;;;;;;4.50;2.67;;;23.80;70.50;;;-142.21;90.64;112049.66;5055091;28;20229;-73
2022/08/15 05:01:12;;;;;;;3.20;2.90;;;23.80;70.90;;;-142.21;90.78;112049.66;5052244;28;20218;-74
2022/08/15 05:03:40;;;;;;;4.30;2.60;;;23.70;71.50;;;-142.21;90.98;112049.66;5054069;28;20236;-74
2022/08/15 05:06:11;;;;;;;4.47;2.80;;;23.80;71.20;;;-142.21;91.40;112049.66;5054047;28;20287;-74
2022/08/15 05:08:40;;;;;;;3.23;2.80;;;23.70;71.60;;;-142.21;91.16;112049.66;5054798;28;20198;-73
2022/08/15 05:11:13;;;;;;;2.50;2.30;;;23.70;71.60;;;-142.21;90.49;112049.66;5054429;28;20228;-74
2022/08/15 05:13:42;;;;;;;2.93;2.60;;;23.80;71.00;;;-142.21;90.08;112049.66;5054299;28;20248;-74
2022/08/15 05:16:10;;;;;;;2.80;2.50;;;23.80;71.10;;;-142.21;89.27;112049.66;5054098;28;20212;-74
2022/08/15 05:18:41;;;;;;;2.53;2.33;;;23.80;70.60;;;-142.21;89.64;112049.66;5054396;28;20285;-74
2022/08/15 05:21:10;;;;;;;2.73;2.13;;;23.70;71.00;;;-142.21;88.94;112049.66;5053933;28;20677;-74
2022/08/15 05:23:42;;;;;;;3.47;2.33;;;23.60;70.60;;;-142.21;88.30;112049.66;5054303;28;20380;-75
2022/08/15 05:26:15;;;;;;;2.47;2.27;;;23.60;70.10;;;-142.21;88.00;112049.66;5034248;28;20278;-74
2022/08/15 05:28:42;;;;;;;2.70;2.20;;;23.70;70.10;;;-142.21;87.09;112049.66;5038967;28;20653;-74
2022/08/15 05:31:11;;;;;;;3.10;2.23;;;23.80;69.40;;;-142.21;86.68;112049.66;5053594;28;20722;-74
2022/08/15 05:33:42;;;;;;;2.10;1.90;;;23.80;69.20;;;-142.21;87.26;112049.66;5054195;28;20316;-73
2022/08/15 05:36:11;;;;;;;2.10;1.90;;;23.70;69.30;;;-142.21;86.78;112049.66;5043895;28;20212;-75
2022/08/15 05:38:49;;;;;;;2.60;2.40;;;23.70;68.90;;;-142.21;86.50;112049.66;5053027;28;20198;-75
2022/08/15 05:41:34;;;;;;;2.50;1.90;;;23.80;68.80;;;-142.21;86.01;112049.66;5053662;28;21016;-74
2022/08/15 05:44:12;;;;;;;2.80;2.20;;;23.80;68.90;;;-142.21;85.90;112049.66;5053058;28;21891;-74
2022/08/15 05:46:49;;;;;;;2.93;1.93;;;23.80;68.50;;;-142.21;86.00;112049.66;5053982;28;20225;-74
2022/08/15 05:49:33;;;;;;;3.80;2.00;;;23.80;68.60;;;-142.21;85.54;112049.66;5053453;28;20190;-73
2022/08/15 05:52:23;;;;;;;2.23;2.00;;;23.90;68.30;;;-142.21;85.49;112049.66;5053471;28;20716;-73
2022/08/15 05:55:05;;;;;;;2.13;1.93;;;24.00;68.00;;;-142.21;85.72;112049.66;5053247;28;20197;-73
2022/08/15 05:57:48;;;;;;;2.87;2.07;;;23.90;68.10;;;-142.21;86.14;112049.66;5033490;28;20325;-73
2022/08/15 06:00:16;;;;;;;2.57;1.83;;;23.80;68.40;;;-142.21;84.94;112049.66;5033480;28;20662;-75
2022/08/15 06:02:49;;;;;;;3.00;2.23;;;23.90;67.60;;;-142.21;84.58;112049.66;5051769;28;20232;-75
2022/08/15 06:05:26;;;;;;;5.67;1.90;;;24.10;67.60;;;-142.21;84.56;112049.66;5052758;28;20320;-75
2022/08/15 06:07:56;;;;;;;3.37;2.07;;;24.10;67.60;;;-142.21;84.21;112049.66;5053538;28;20202;-75
2022/08/15 06:10:30;;;;;;;4.10;2.07;;;23.90;67.00;;;-142.21;84.20;112049.66;5053564;28;20308;-75
2022/08/15 06:13:08;;;;;;;2.50;1.80;;;23.90;67.40;;;-142.21;84.28;112049.66;5052013;28;20212;-74
2022/08/15 06:15:48;;;;;;;2.70;2.20;;;23.80;67.60;;;-142.21;84.47;112049.66;5052549;28;20685;-75
2022/08/15 06:18:20;;;;;;;4.10;2.50;;;23.80;67.90;;;-142.21;85.14;112049.66;5050982;28;20204;-76
2022/08/15 06:21:00;;;;;;;2.23;1.63;;;23.60;68.10;;;-142.21;84.68;112049.66;5049335;28;20728;-76
2022/08/15 06:23:42;;;;;;;2.60;2.23;;;23.60;68.10;;;-142.21;84.96;112049.66;5053130;28;20278;-75
2022/08/15 06:26:30;;;;;;;2.40;2.20;;;23.70;68.40;;;-142.21;85.83;112049.66;5053310;28;20228;-75
2022/08/15 06:29:24;;;;;;;3.30;2.10;;;23.60;68.90;;;-142.21;85.50;112049.66;5041857;28;20235;-76
2022/08/15 06:31:58;;;;;;;3.10;2.20;;;23.60;68.70;;;-142.21;85.34;112049.66;5052535;28;20232;-75
2022/08/15 06:34:48;;;;;;;3.23;2.17;;;23.70;68.60;;;-142.21;84.89;112049.66;5051772;28;20240;-75
2022/08/15 06:37:27;;;;;;;3.13;2.00;;;23.80;68.60;;;-142.21;84.85;112049.66;5050737;28;20202;-74
2022/08/15 06:40:11;;;;;;;3.73;2.40;;;23.70;68.70;;;-142.21;85.21;112049.66;5052517;28;20248;-75
2022/08/15 06:42:44;;;;;;;3.30;2.27;;;23.50;69.00;;;-142.21;84.85;112049.66;5052212;28;20221;-75
2022/08/15 06:45:18;;;;;;;2.77;2.03;;;23.50;69.00;;;-142.21;84.50;112049.66;5051543;28;20278;-75
2022/08/15 06:47:48;;;;;;;2.83;2.30;;;23.40;68.80;;;-142.21;84.08;112049.66;5050790;28;20303;-69
2022/08/15 06:50:25;;;;;;;2.40;2.20;;;23.50;68.20;;;-142.21;83.76;112049.66;5051564;28;20197;-75
2022/08/15 06:53:00;;;;;;;4.27;2.17;;;23.70;67.90;;;-142.21;83.20;112049.66;5052232;28;20244;-76
2022/08/15 06:55:41;;;;;;;2.10;1.90;;;23.80;67.60;;;-142.21;82.61;112049.66;5051903;28;20683;-76
2022/08/15 06:58:17;;;;;;;3.03;2.20;;;23.80;67.20;;;-142.21;82.85;112049.66;5051391;28;20292;-76
2022/08/15 07:00:52;;;;;;;2.80;2.00;;;23.80;67.40;;;-142.21;84.07;112049.66;5051635;28;20279;-76
2022/08/15 07:03:42;;;;;;;2.40;2.10;;;23.70;68.10;;;-142.21;84.82;112049.66;5050930;28;20551;-76
2022/08/15 07:06:15;;;;;;;2.13;1.90;;;23.60;68.80;;;-142.21;85.99;112049.66;5051585;28;20273;-76
2022/08/15 07:08:53;;;;;;;2.40;2.20;;;23.40;69.40;;;-142.21;86.27;112049.66;5051984;28;20194;-76
2022/08/15 07:11:31;;;;;;;1.90;1.70;;;23.30;69.70;;;-142.21;86.59;112049.66;5051148;28;21041;-76
2022/08/15 07:14:23;;;;;;;2.20;2.00;;;23.30;70.00;;;-142.21;87.45;112049.66;5031916;28;20650;-75
2022/08/15 07:17:04;;;;;;;3.10;2.10;;;23.40;70.80;;;-142.21;90.38;112049.66;5032289;28;20204;-76
2022/08/15 07:19:32;;;;;;;2.37;2.10;;;23.30;71.50;;;-142.21;91.37;112049.66;5032098;28;20222;-75
2022/08/15 07:22:00;;;;;;;3.57;2.40;;;23.30;72.40;;;-142.21;92.25;112049.66;5032138;28;20213;-76
2022/08/15 07:24:32;;;;;;;4.13;2.43;;;23.30;72.20;;;-142.21;92.37;112049.66;5031130;28;20272;-77
2022/08/15 07:27:09;;;;;;;2.63;2.33;;;23.30;72.50;;;-142.21;92.87;112049.66;5031531;28;20240;-75
2022/08/15 07:29:47;;;;;;;2.57;2.37;;;23.40;72.60;;;-142.21;93.07;112049.66;5044440;28;20254;-74
2022/08/15 07:32:23;;;;;;;2.50;2.30;;;23.40;73.10;;;-142.21;93.72;112049.66;5051316;28;20228;-77
2022/08/15 07:34:58;;;;;;;3.50;2.20;;;23.40;72.70;;;-142.21;93.18;112049.66;5051904;28;20224;-75
2022/08/15 07:37:33;;;;;;;4.03;2.30;;;23.60;72.50;;;-142.21;93.47;112049.66;5050883;28;20231;-76
2022/08/15 07:40:06;;;;;;;2.27;1.93;;;23.80;72.70;;;-142.21;92.11;112049.66;5052023;28;20610;-75
2022/08/15 07:42:41;;;;;;;2.30;1.97;;;24.00;72.30;;;-142.21;91.69;112049.66;5051931;28;20201;-75
2022/08/15 07:45:21;;;;;;;2.13;1.93;;;24.10;71.20;;;-142.21;92.22;112049.66;5016360;28;20673;-76
2022/08/15 07:47:58;;;;;;;2.20;2.00;;;24.30;71.70;;;-142.21;89.70;112049.66;5050530;28;20229;-77
2022/08/15 07:50:37;;;;;;;2.80;2.40;;;24.40;70.10;;;-142.21;89.44;112049.66;5001077;28;20255;-75
2022/08/15 07:53:18;;;;;;;3.30;2.13;;;24.40;69.70;;;-142.21;88.92;112049.66;5050988;28;20300;-76
2022/08/15 07:56:12;;;;;;;2.60;2.40;;;24.50;69.30;;;-142.21;88.34;112049.66;5033035;28;20607;-76
2022/08/15 07:58:41;;;;;;;2.20;2.00;;;24.40;69.20;;;-142.21;87.71;112049.66;5049162;28;20575;-77
2022/08/15 08:01:14;;;;;;;2.40;2.20;;;24.40;68.70;;;-142.21;88.25;112049.66;5051018;28;20256;-77
2022/08/15 08:03:48;;;;;;;2.20;2.00;;;24.40;69.50;;;-142.21;85.87;112049.66;5051330;28;20706;-77
2022/08/15 08:06:28;;;;;;;2.57;2.03;;;24.60;68.70;;;-142.21;82.67;112049.66;5051216;28;20193;-76
2022/08/15 08:09:15;;;;;;;2.30;2.10;;;24.60;67.00;;;-142.21;82.87;112049.66;5051696;28;20278;-76
2022/08/15 08:11:50;;;;;;;2.93;2.20;;;24.40;66.90;;;-142.21;82.75;112049.66;5050036;28;20232;-76
2022/08/15 08:14:35;;;;;;;2.13;1.93;;;24.30;66.90;;;-142.21;83.02;112049.66;5052079;28;20568;-76
2022/08/15 08:17:21;;;;;;;2.47;2.17;;;24.40;67.30;;;-142.21;82.37;112049.66;5049978;28;20259;-75
2022/08/15 08:20:07;;;;;;;2.40;1.90;;;24.70;67.10;;;-142.21;80.79;112049.66;5053618;28;20190;-74
2022/08/15 08:22:50;;;;;;;2.60;2.07;;;24.90;66.10;;;-142.21;80.04;112049.66;5055131;28;20247;-76
2022/08/15 08:25:27;;;;;;;3.17;2.13;;;25.00;65.30;;;-142.21;77.82;112049.66;5054778;28;20194;-77
2022/08/15 08:28:15;;;;;;;2.53;2.17;;;25.10;63.90;;;-142.21;77.84;112049.66;5054848;28;20197;-76
2022/08/15 08:31:02;;;;;;;2.60;2.40;;;25.10;64.20;;;-142.21;76.56;112049.66;5034099;28;20616;-77
2022/08/15 08:33:45;;;;;;;2.47;1.93;;;25.20;63.60;;;-142.21;74.99;112049.66;5035372;28;20637;-76
2022/08/15 08:36:25;;;;;;;2.60;2.40;;;25.40;63.00;;;-142.21;73.56;112049.66;5034338;28;20594;-76
2022/08/15 08:39:03;;;;;;;2.63;2.30;;;25.70;62.30;;;-142.21;72.73;112049.66;5035160;28;20190;-77
2022/08/15 08:41:45;;;;;;;2.40;2.20;;;25.80;61.30;;;-142.21;72.61;112049.66;5034918;28;20219;-76
2022/08/15 08:44:27;;;;;;;2.20;2.00;;;25.80;61.10;;;-142.21;72.63;112049.66;5034259;28;20212;-77
2022/08/15 08:47:13;;;;;;;3.10;2.30;;;25.70;60.90;;;-142.21;70.63;112049.66;5034784;28;20643;-76
2022/08/15 08:50:00;;;;;;;2.90;2.23;;;25.80;60.20;;;-142.21;71.16;112049.66;5034603;28;20283;-76
2022/08/15 08:52:35;;;;;;;3.13;2.70;;;25.70;60.40;;;-142.21;70.80;112049.66;4999255;28;20206;-76
2022/08/15 08:55:09;;;;;;;2.57;2.30;;;25.80;60.60;;;-142.21;68.24;112049.66;5033638;28;20221;-78
2022/08/15 08:57:46;;;;;;;3.03;2.30;;;26.00;59.80;;;-142.21;66.60;112049.66;5034761;28;20214;-76
2022/08/15 09:00:18;;;;;;;2.63;2.43;;;26.20;59.20;;;-142.21;65.67;112049.66;5033789;28;20728;-76
2022/08/15 09:02:52;;;;;;;3.13;2.23;;;26.20;58.60;;;-142.21;66.60;112049.66;5034683;28;20260;-76
2022/08/15 09:05:42;;;;;;;4.10;2.40;;;26.30;58.30;;;-142.21;66.01;112049.66;5032234;28;20273;-76
2022/08/15 09:08:19;;;;;;;2.60;2.40;;;26.40;58.20;;;-142.21;65.74;112049.66;5033678;28;20245;-75
2022/08/15 09:10:50;;;;;;;2.03;1.83;;;26.40;58.30;;;-142.21;66.66;112049.66;5034505;28;20190;-75
2022/08/15 09:13:33;;;;;;;3.43;1.80;;;26.40;58.30;;;-142.21;64.91;112049.66;5049808;28;20221;-77
2022/08/15 09:16:09;;;;;;;3.10;2.37;;;26.40;57.60;;;-142.21;65.74;112049.66;5054286;28;20187;-76
2022/08/15 09:18:46;;;;;;;2.60;2.40;;;26.30;58.20;;;-142.21;65.63;112049.66;5054321;28;20281;-75
2022/08/15 09:21:15;;;;;;;2.30;2.10;;;26.20;58.20;;;-142.21;65.77;112049.66;5053213;28;20232;-78
2022/08/15 09:23:47;;;;;;;3.43;2.00;;;26.30;58.20;;;-142.21;63.87;112049.66;5054239;28;20244;-77
2022/08/15 09:26:24;;;;;;;2.77;2.00;;;26.40;57.70;;;-142.21;63.64;112049.66;5053549;28;20243;-76
2022/08/15 09:29:15;;;;;;;2.33;2.13;;;26.60;57.60;;;-142.21;62.63;112049.66;5053960;28;20193;-75
2022/08/15 09:31:59;;;;;;;2.87;2.57;;;26.70;57.10;;;-142.21;63.11;112049.66;5050854;28;20279;-75
2022/08/15 09:35:01;;;;;;;2.67;2.43;;;26.70;58.00;;;-142.21;61.83;112049.66;5042813;28;20214;-76
2022/08/15 09:38:23;;;;;;;2.43;2.23;;;26.60;56.80;;;-142.21;62.13;112049.66;5052940;28;20285;-76
2022/08/15 09:41:20;;;;;;;2.87;2.50;;;26.50;56.80;;;-142.21;61.41;112049.66;5052757;28;20257;-76
2022/08/15 09:44:24;;;;;;;3.40;2.33;;;26.70;56.90;;;-142.21;58.25;112049.66;5053560;28;20190;-77
2022/08/15 09:47:28;;;;;;;2.17;2.00;;;26.70;56.00;;;-142.21;59.26;112049.66;5053886;28;20194;-76
2022/08/15 09:50:35;;;;;;;3.87;2.10;;;26.80;56.10;;;-142.21;57.40;112049.66;5053889;28;20198;-78
2022/08/15 09:53:40;;;;;;;2.53;2.33;;;27.10;55.80;;;-142.21;55.27;112049.66;5053920;28;20210;-77
2022/08/15 09:56:18;;;;;;;2.17;1.97;;;27.30;55.00;;;-142.21;55.64;112049.66;5055644;28;20532;-76
2022/08/15 09:58:54;;;;;;;2.43;2.20;;;27.50;54.70;;;-142.21;54.20;112049.66;5034447;28;20211;-77
2022/08/15 10:01:28;;;;;;;2.83;2.00;;;27.80;54.20;;;-142.21;52.60;112049.66;5033551;28;20196;-74
2022/08/15 10:04:03;;;;;;;2.30;2.10;;;27.80;53.20;;;-142.21;54.36;112049.66;5028068;28;20287;-77
2022/08/15 10:06:33;;;;;;;2.53;2.30;;;27.70;53.80;;;-142.21;54.04;112049.66;5052764;28;20246;-77
2022/08/15 10:09:31;;;;;;;2.97;2.23;;;27.70;53.80;;;-142.21;53.46;112049.66;5052899;28;20681;-75
2022/08/15 10:12:23;;;;;;;2.43;2.20;;;27.80;53.30;;;-142.21;51.08;112049.66;5052224;28;20203;-78
2022/08/15 10:15:04;;;;;;;2.13;1.90;;;27.80;52.50;;;-142.21;50.15;112049.66;5047837;28;20250;-78
2022/08/15 10:17:45;;;;;;;2.60;2.17;;;27.90;52.30;;;-142.21;47.16;112049.66;5052793;28;20244;-78
2022/08/15 10:20:52;;;;;;;2.00;1.77;;;28.10;51.10;;;-142.21;46.77;112049.66;5052677;28;20201;-77
2022/08/15 10:23:39;;;;;;;2.93;1.83;;;28.20;50.90;;;-142.21;46.39;112049.66;5030283;28;20617;-76
2022/08/15 10:26:27;;;;;;;2.33;2.13;;;28.40;50.90;;;-142.21;46.03;112049.66;5051606;28;20209;-76
2022/08/15 10:29:11;;;;;;;2.23;2.03;;;28.30;50.50;;;-142.21;46.28;112049.66;5053189;28;20209;-78
2022/08/15 10:31:50;;;;;;;2.10;1.90;;;28.40;50.50;;;-142.21;45.00;112049.66;5051458;28;20201;-78
2022/08/15 10:34:38;;;;;;;3.67;2.27;;;28.40;50.00;;;-142.21;44.65;112049.66;5052890;28;20211;-77